createdAt,value
2017-02-23T00:01:37.853Z,4
2017-02-23T00:06:54.294Z,4
2017-02-23T00:12:09.881Z,4
2017-02-23T00:17:26.538Z,4
2017-02-23T00:22:42.257Z,4
2017-02-23T00:27:58.531Z,4
2017-02-23T00:33:14.991Z,4
2017-02-23T00:38:30.603Z,0
2017-02-23T00:43:46.520Z,0
2017-02-23T00:49:04.582Z,0
2017-02-23T00:54:20.268Z,0
2017-02-23T00:59:36.717Z,0
2017-02-23T01:04:52.466Z,0
2017-02-23T01:10:08.028Z,0
2017-02-23T01:15:24.686Z,0
2017-02-23T01:20:41.140Z,0
2017-02-23T01:25:56.828Z,0
2017-02-23T01:31:12.417Z,0
2017-02-23T01:36:28.404Z,0
2017-02-23T01:41:44.403Z,0
2017-02-23T01:46:59.997Z,0
2017-02-23T01:52:15.712Z,0
2017-02-23T01:57:31.288Z,0
2017-02-23T02:02:46.917Z,0
2017-02-23T02:08:02.990Z,0
2017-02-23T02:13:18.832Z,0
2017-02-23T02:18:34.942Z,0
2017-02-23T02:23:50.507Z,0
2017-02-23T02:29:06.041Z,0
2017-02-23T02:34:21.656Z,0
2017-02-23T02:39:37.698Z,0
2017-02-23T02:44:53.815Z,0
2017-02-23T02:50:09.393Z,0
2017-02-23T02:55:24.975Z,0
2017-02-23T03:00:40.576Z,0
2017-02-23T03:05:56.175Z,0
2017-02-23T03:11:12.331Z,0
2017-02-23T03:16:28.082Z,0
2017-02-23T03:21:43.670Z,0
2017-02-23T03:26:59.234Z,0
2017-02-23T03:32:14.974Z,0
2017-02-23T03:37:30.751Z,0
2017-02-23T03:42:46.796Z,0
2017-02-23T03:48:03.546Z,0
2017-02-23T03:53:19.952Z,0
2017-02-23T03:58:35.646Z,0
2017-02-23T04:03:51.498Z,0
2017-02-23T04:09:07.081Z,0
2017-02-23T04:14:22.659Z,0
2017-02-23T04:19:38.436Z,0
2017-02-23T04:24:54.002Z,0
2017-02-23T04:30:10.315Z,0
2017-02-23T04:35:26.103Z,0
2017-02-23T04:40:41.747Z,0
2017-02-23T04:45:57.309Z,0
2017-02-23T04:51:12.894Z,0
2017-02-23T04:56:28.476Z,0
2017-02-23T05:01:44.074Z,0
2017-02-23T05:06:59.722Z,0
2017-02-23T05:12:15.382Z,0
2017-02-23T05:17:30.970Z,0
2017-02-23T05:22:46.557Z,0
2017-02-23T05:28:02.189Z,0
2017-02-23T05:33:18.618Z,0
2017-02-23T05:38:34.414Z,0
2017-02-23T05:43:49.994Z,0
2017-02-23T05:49:05.560Z,0
2017-02-23T05:54:21.165Z,0
2017-02-23T05:59:37.655Z,0
2017-02-23T06:04:53.252Z,0
2017-02-23T06:10:08.840Z,0
2017-02-23T06:15:24.411Z,0
2017-02-23T06:20:39.997Z,0
2017-02-23T06:25:55.597Z,0
2017-02-23T06:31:11.198Z,0
2017-02-23T06:36:26.856Z,0
2017-02-23T06:41:43.979Z,0
2017-02-23T06:46:59.972Z,0
2017-02-23T06:52:15.970Z,0
2017-02-23T06:57:31.562Z,0
2017-02-23T07:02:47.187Z,0
2017-02-23T07:08:02.815Z,0
2017-02-23T07:13:18.843Z,0
2017-02-23T07:18:35.029Z,4
2017-02-23T07:23:50.633Z,4
2017-02-23T07:29:06.215Z,16
2017-02-23T07:34:21.803Z,48
2017-02-23T07:39:37.456Z,108
2017-02-23T07:44:53.186Z,204
2017-02-23T07:50:08.983Z,332
2017-02-23T07:55:24.546Z,496
2017-02-23T08:00:40.125Z,688
2017-02-23T08:05:55.814Z,932
2017-02-23T08:11:11.477Z,1248
2017-02-23T08:16:27.315Z,1572
2017-02-23T08:21:43.820Z,1840
2017-02-23T08:27:00.322Z,2132
2017-02-23T08:32:16.714Z,2488
2017-02-23T08:37:32.534Z,2792
2017-02-23T08:42:48.351Z,3124
2017-02-23T08:48:03.995Z,3536
2017-02-23T08:53:19.589Z,3912
2017-02-23T08:58:37.370Z,4324
2017-02-23T09:03:53.978Z,4656
2017-02-23T09:09:09.575Z,5128
2017-02-23T09:14:25.161Z,5724
2017-02-23T09:19:40.763Z,6224
2017-02-23T09:24:56.354Z,6768
2017-02-23T09:30:12.266Z,7592
2017-02-23T09:35:28.808Z,8452
2017-02-23T09:40:44.633Z,9164
2017-02-23T09:46:00.480Z,10084
2017-02-23T09:51:16.129Z,10904
2017-02-23T09:56:31.848Z,23232
2017-02-23T10:01:48.091Z,27392
2017-02-23T10:07:03.769Z,31104
2017-02-23T10:12:20.894Z,32992
2017-02-23T10:17:37.237Z,35104
2017-02-23T10:22:52.922Z,36800
2017-02-23T10:28:08.542Z,40192
2017-02-23T10:33:24.639Z,40512
2017-02-23T10:38:40.522Z,38784
2017-02-23T10:43:56.531Z,43520
2017-02-23T10:49:12.580Z,44768
2017-02-23T10:54:28.491Z,46080
2017-02-23T10:59:44.936Z,46784
2017-02-23T11:05:01.234Z,49504
2017-02-23T11:10:17.098Z,51040
2017-02-23T11:15:32.746Z,54624
2017-02-23T11:20:48.701Z,44480
2017-02-23T11:26:05.264Z,27232
2017-02-23T11:31:20.915Z,57280
2017-02-23T11:36:38.923Z,59232
2017-02-23T11:41:54.665Z,47648
2017-02-23T11:47:10.301Z,59808
2017-02-23T11:52:26.258Z,50208
2017-02-23T11:57:43.038Z,13924
2017-02-23T12:02:58.721Z,8700
2017-02-23T12:08:14.348Z,11832
2017-02-23T12:13:30.406Z,11688
2017-02-23T12:18:46.183Z,11952
2017-02-23T12:24:01.821Z,9348
2017-02-23T12:29:17.993Z,8868
2017-02-23T12:34:34.338Z,11000
2017-02-23T12:39:50.986Z,16340
2017-02-23T12:45:08.013Z,10736
2017-02-23T12:50:23.682Z,10548
2017-02-23T12:55:40.470Z,11216
2017-02-23T13:00:56.498Z,21536
2017-02-23T13:06:12.296Z,8700
2017-02-23T13:11:27.892Z,7508
2017-02-23T13:16:43.502Z,9576
2017-02-23T13:21:59.354Z,7276
2017-02-23T13:27:16.491Z,8932
2017-02-23T13:32:32.913Z,9636
2017-02-23T13:37:48.667Z,8504
2017-02-23T13:43:04.375Z,7888
2017-02-23T13:48:19.977Z,7272
2017-02-23T13:53:37.681Z,7792
2017-02-23T13:58:53.768Z,6400
2017-02-23T14:04:11.640Z,6268
2017-02-23T14:09:28.663Z,7692
2017-02-23T14:14:44.800Z,7252
2017-02-23T14:20:02.143Z,5976
2017-02-23T14:25:19.361Z,5540
2017-02-23T14:30:35.633Z,4888
2017-02-23T14:35:51.659Z,4260
2017-02-23T14:41:07.436Z,4168
2017-02-23T14:46:25.024Z,4496
2017-02-23T14:51:41.753Z,4348
2017-02-23T14:56:58.298Z,4276
2017-02-23T15:02:14.031Z,4476
2017-02-23T15:07:30.648Z,4356
2017-02-23T15:12:46.698Z,4208
2017-02-23T15:18:02.327Z,4164
2017-02-23T15:23:20.548Z,4580
2017-02-23T15:28:37.414Z,20640
2017-02-23T15:33:54.433Z,6492
2017-02-23T15:39:10.442Z,10920
2017-02-23T15:44:26.039Z,6568
2017-02-23T15:49:42.232Z,7172
2017-02-23T15:54:58.053Z,6932
2017-02-23T16:00:13.643Z,6240
2017-02-23T16:05:31.289Z,6124
2017-02-23T16:10:47.198Z,6008
2017-02-23T16:16:02.828Z,5876
2017-02-23T16:21:18.618Z,5896
2017-02-23T16:26:36.989Z,6532
2017-02-23T16:31:52.681Z,5920
2017-02-23T16:37:09.773Z,5528
2017-02-23T16:42:29.765Z,4584
2017-02-23T16:47:49.099Z,3940
2017-02-23T16:53:06.757Z,3528
2017-02-23T16:58:24.074Z,3020
2017-02-23T17:03:41.353Z,2700
2017-02-23T17:08:58.713Z,2316
2017-02-23T17:14:14.465Z,2232
2017-02-23T17:19:31.988Z,2060
2017-02-23T17:24:48.874Z,1976
2017-02-23T17:30:05.037Z,1840
2017-02-23T17:35:22.412Z,1536
2017-02-23T17:40:40.050Z,1328
2017-02-23T17:45:57.572Z,1160
2017-02-23T17:51:13.337Z,1000
2017-02-23T17:56:28.998Z,832
2017-02-23T18:01:44.968Z,756
2017-02-23T18:07:01.038Z,668
2017-02-23T18:12:18.415Z,576
2017-02-23T18:17:35.861Z,492
2017-02-23T18:22:52.210Z,388
2017-02-23T18:28:07.801Z,300
2017-02-23T18:33:23.529Z,236
2017-02-23T18:38:40.381Z,196
2017-02-23T18:43:56.887Z,136
2017-02-23T18:49:13.482Z,84
2017-02-23T18:54:29.863Z,52
2017-02-23T18:59:46.218Z,28
2017-02-23T19:05:03.546Z,12
2017-02-23T19:10:23.197Z,4
2017-02-23T19:15:39.708Z,4
2017-02-23T19:20:55.523Z,0
2017-02-23T19:26:11.241Z,4
2017-02-23T19:31:28.257Z,4
2017-02-23T19:36:45.816Z,4
2017-02-23T19:42:03.053Z,4
2017-02-23T19:47:19.668Z,4
2017-02-23T19:52:39.218Z,4
2017-02-23T19:57:56.089Z,4
2017-02-23T20:03:12.013Z,4
2017-02-23T20:08:30.299Z,4
2017-02-23T20:13:47.049Z,4
2017-02-23T20:19:03.767Z,4
2017-02-23T20:24:22.597Z,4
2017-02-23T20:29:41.280Z,4
2017-02-23T20:34:59.841Z,4
2017-02-23T20:40:16.172Z,4
2017-02-23T20:45:33.542Z,4
2017-02-23T20:50:51.807Z,4
2017-02-23T20:56:08.416Z,4
2017-02-23T21:01:25.079Z,0
2017-02-23T21:06:44.717Z,0
2017-02-23T21:12:01.092Z,0
2017-02-23T21:17:19.152Z,0
2017-02-23T21:22:36.119Z,0
2017-02-23T21:27:52.344Z,0
2017-02-23T21:33:08.786Z,0
2017-02-23T21:38:26.694Z,0
2017-02-23T21:43:45.203Z,0
2017-02-23T21:49:01.876Z,0
2017-02-23T21:54:20.035Z,0
2017-02-23T21:59:38.575Z,0
2017-02-23T22:04:55.216Z,0
2017-02-23T22:10:10.948Z,0
2017-02-23T22:15:30.687Z,0
2017-02-23T22:20:48.476Z,0
2017-02-23T22:26:05.200Z,0
2017-02-23T22:31:25.272Z,0
2017-02-23T22:36:41.994Z,0
2017-02-23T22:41:58.643Z,0
2017-02-23T22:47:17.451Z,0
2017-02-23T22:52:34.801Z,0
2017-02-23T22:57:51.536Z,0
2017-02-23T23:03:08.467Z,0
2017-02-23T23:08:26.175Z,0
2017-02-23T23:13:43.536Z,0
2017-02-23T23:18:59.775Z,0
2017-02-23T23:24:15.411Z,0
2017-02-23T23:29:31.944Z,0
2017-02-23T23:34:47.898Z,0
2017-02-23T23:40:03.602Z,0
2017-02-23T23:45:20.470Z,0
2017-02-23T23:50:38.787Z,0
2017-02-23T23:55:54.368Z,0
